createdAt,value
2024-04-30T00:02:12.571Z,37.80
2024-04-30T00:04:39.617Z,37.80
2024-04-30T00:07:06.661Z,37.80
2024-04-30T00:09:33.592Z,37.80
2024-04-30T00:12:00.543Z,37.80
2024-04-30T00:14:27.645Z,37.80
2024-04-30T00:16:54.534Z,37.80
2024-04-30T00:19:21.614Z,37.70
2024-04-30T00:21:48.614Z,37.70
2024-04-30T00:24:15.560Z,37.70
2024-04-30T00:26:42.486Z,37.60
2024-04-30T00:29:09.400Z,37.70
2024-04-30T00:31:40.242Z,37.70
2024-04-30T00:34:07.259Z,37.70
2024-04-30T00:36:38.023Z,38.20
2024-04-30T00:39:05.000Z,37.70
2024-04-30T00:41:31.999Z,37.80
2024-04-30T00:43:58.884Z,37.80
2024-04-30T00:46:26.010Z,37.80
2024-04-30T00:48:53.040Z,37.80
2024-04-30T00:51:20.033Z,37.80
2024-04-30T00:53:47.033Z,37.80
2024-04-30T00:56:14.223Z,37.80
2024-04-30T00:58:41.314Z,37.90
2024-04-30T01:01:08.511Z,37.90
2024-04-30T01:03:35.638Z,37.90
2024-04-30T01:06:02.696Z,37.90
2024-04-30T01:08:29.624Z,37.90
2024-04-30T01:10:56.939Z,37.90
2024-04-30T01:13:23.953Z,38.00
2024-04-30T01:15:51.648Z,38.00
2024-04-30T01:18:19.062Z,38.00
2024-04-30T01:20:46.160Z,38.00
2024-04-30T01:23:13.142Z,37.90
2024-04-30T01:25:40.095Z,37.90
2024-04-30T01:28:07.114Z,37.90
2024-04-30T01:30:34.178Z,37.90
2024-04-30T01:33:02.648Z,37.80
2024-04-30T01:35:29.707Z,37.80
2024-04-30T01:37:56.666Z,37.80
2024-04-30T01:40:23.644Z,37.80
2024-04-30T01:42:50.605Z,37.80
2024-04-30T01:45:17.582Z,37.90
2024-04-30T01:47:44.711Z,37.90
2024-04-30T01:50:12.238Z,37.90
2024-04-30T01:52:42.412Z,37.90
2024-04-30T01:55:09.494Z,38.00
2024-04-30T01:57:36.669Z,38.00
2024-04-30T02:00:03.918Z,38.00
2024-04-30T02:02:30.919Z,38.00
2024-04-30T02:04:58.070Z,38.00
2024-04-30T02:07:25.388Z,38.00
2024-04-30T02:09:52.387Z,38.00
2024-04-30T02:12:19.398Z,38.00
2024-04-30T02:14:46.287Z,38.10
2024-04-30T02:17:13.300Z,38.00
2024-04-30T02:19:40.289Z,38.00
2024-04-30T02:22:07.352Z,38.00
2024-04-30T02:24:34.330Z,38.00
2024-04-30T02:27:01.373Z,38.10
2024-04-30T02:29:28.350Z,38.10
2024-04-30T02:32:15.212Z,38.70
2024-04-30T02:34:42.189Z,38.10
2024-04-30T02:37:09.125Z,38.10
2024-04-30T02:39:36.050Z,38.00
2024-04-30T02:42:03.030Z,38.00
2024-04-30T02:44:30.128Z,38.00
2024-04-30T02:46:57.079Z,38.00
2024-04-30T02:49:24.118Z,38.00
2024-04-30T02:51:51.124Z,37.90
2024-04-30T02:54:18.207Z,37.90
2024-04-30T02:56:45.160Z,38.00
2024-04-30T02:59:12.150Z,38.00
2024-04-30T03:01:39.141Z,38.00
2024-04-30T03:04:06.244Z,38.00
2024-04-30T03:06:33.317Z,38.10
2024-04-30T03:09:00.249Z,38.10
2024-04-30T03:11:27.334Z,38.10
2024-04-30T03:13:54.243Z,38.10
2024-04-30T03:16:21.158Z,38.10
2024-04-30T03:18:48.090Z,38.10
2024-04-30T03:21:14.978Z,38.10
2024-04-30T03:23:42.016Z,38.10
2024-04-30T03:26:09.129Z,38.10
2024-04-30T03:28:36.120Z,38.10
2024-04-30T03:31:06.488Z,38.10
2024-04-30T03:33:36.586Z,38.10
2024-04-30T03:36:03.660Z,38.20
2024-04-30T03:38:30.583Z,38.10
2024-04-30T03:40:57.490Z,38.10
2024-04-30T03:43:24.504Z,38.10
2024-04-30T03:45:51.550Z,38.10
2024-04-30T03:48:18.588Z,38.10
2024-04-30T03:50:45.578Z,38.10
2024-04-30T03:53:12.500Z,38.00
2024-04-30T03:55:39.509Z,38.00
2024-04-30T03:58:06.687Z,37.90
2024-04-30T04:00:33.752Z,37.90
2024-04-30T04:03:00.903Z,37.90
2024-04-30T04:05:27.983Z,37.90
2024-04-30T04:07:54.892Z,37.90
2024-04-30T04:10:21.806Z,37.90
2024-04-30T04:13:08.746Z,37.90
2024-04-30T04:15:35.663Z,37.90
2024-04-30T04:18:02.749Z,37.80
2024-04-30T04:20:29.754Z,37.80
2024-04-30T04:22:56.628Z,37.80
2024-04-30T04:25:23.630Z,37.80
2024-04-30T04:27:50.939Z,37.70
2024-04-30T04:30:17.961Z,37.70
2024-04-30T04:32:44.988Z,37.70
2024-04-30T04:35:12.279Z,37.70
2024-04-30T04:37:39.281Z,37.70
2024-04-30T04:40:06.689Z,37.70
2024-04-30T04:42:33.681Z,37.70
2024-04-30T04:45:00.574Z,37.60
2024-04-30T04:47:27.656Z,37.50
2024-04-30T04:49:54.697Z,37.50
2024-04-30T04:52:21.671Z,37.50
2024-04-30T04:54:48.675Z,37.40
2024-04-30T04:57:15.638Z,37.40
2024-04-30T04:59:42.541Z,37.40
2024-04-30T05:02:09.660Z,37.30
2024-04-30T05:04:36.746Z,37.80
2024-04-30T05:07:03.934Z,37.20
2024-04-30T05:09:30.880Z,37.10
2024-04-30T05:11:57.931Z,37.00
2024-04-30T05:14:24.875Z,37.00
2024-04-30T05:16:51.939Z,37.00
2024-04-30T05:19:18.975Z,37.00
2024-04-30T05:21:46.030Z,37.00
2024-04-30T05:24:13.024Z,37.00
2024-04-30T05:26:39.966Z,37.00
2024-04-30T05:29:06.977Z,37.00
2024-04-30T05:31:37.944Z,36.90
2024-04-30T05:34:05.470Z,37.00
2024-04-30T05:36:32.644Z,37.00
2024-04-30T05:39:02.561Z,37.10
2024-04-30T05:41:30.925Z,37.20
2024-04-30T05:43:58.905Z,37.30
2024-04-30T05:46:25.993Z,37.30
2024-04-30T05:48:53.497Z,37.30
2024-04-30T05:51:20.470Z,37.20
2024-04-30T05:53:47.411Z,37.20
2024-04-30T05:56:14.953Z,37.20
2024-04-30T05:58:42.017Z,37.20
2024-04-30T06:01:09.110Z,37.10
2024-04-30T06:03:36.188Z,37.00
2024-04-30T06:06:03.421Z,37.00
2024-04-30T06:08:30.396Z,36.90
2024-04-30T06:10:57.624Z,36.90
2024-04-30T06:13:24.851Z,37.00
2024-04-30T06:15:51.956Z,36.90
2024-04-30T06:18:19.020Z,37.00
2024-04-30T06:20:46.173Z,36.90
2024-04-30T06:23:13.354Z,36.90
2024-04-30T06:25:40.423Z,36.80
2024-04-30T06:28:07.564Z,36.90
2024-04-30T06:30:34.647Z,36.80
2024-04-30T06:33:01.768Z,36.80
2024-04-30T06:35:29.490Z,36.70
2024-04-30T06:37:57.867Z,36.60
2024-04-30T06:40:27.329Z,36.60
2024-04-30T06:42:55.020Z,36.60
2024-04-30T06:45:24.700Z,36.50
2024-04-30T06:47:52.092Z,36.40
2024-04-30T06:50:19.130Z,36.30
2024-04-30T06:52:46.197Z,36.20
2024-04-30T06:55:13.386Z,36.10
2024-04-30T06:57:40.367Z,36.20
2024-04-30T07:00:07.689Z,36.20
2024-04-30T07:02:34.799Z,36.30
2024-04-30T07:05:02.007Z,36.30
2024-04-30T07:07:31.130Z,36.30
2024-04-30T07:09:58.278Z,36.30
2024-04-30T07:12:25.327Z,36.10
2024-04-30T07:14:52.603Z,36.10
2024-04-30T07:17:19.683Z,36.00
2024-04-30T07:19:49.533Z,36.00
2024-04-30T07:22:18.227Z,35.90
2024-04-30T07:24:45.341Z,35.90
2024-04-30T07:27:12.428Z,35.60
2024-04-30T07:29:39.430Z,35.50
2024-04-30T07:32:06.656Z,35.50
2024-04-30T07:34:33.807Z,35.50
2024-04-30T07:37:00.934Z,35.40
2024-04-30T07:39:28.085Z,35.40
2024-04-30T07:41:55.195Z,35.40
2024-04-30T07:44:22.202Z,35.40
2024-04-30T07:46:49.235Z,35.30
2024-04-30T07:49:16.363Z,35.20
2024-04-30T07:51:43.591Z,35.00
2024-04-30T07:54:10.698Z,35.00
2024-04-30T07:56:38.302Z,34.90
2024-04-30T07:59:05.339Z,35.00
2024-04-30T08:01:32.407Z,34.90
2024-04-30T08:04:00.295Z,34.90
2024-04-30T08:06:27.477Z,34.70
2024-04-30T08:08:54.614Z,34.70
2024-04-30T08:11:21.733Z,34.70
2024-04-30T08:13:49.769Z,34.70
2024-04-30T08:16:16.879Z,34.70
2024-04-30T08:18:44.405Z,34.60
2024-04-30T08:21:11.491Z,34.60
2024-04-30T08:23:38.617Z,34.60
2024-04-30T08:26:07.093Z,34.50
2024-04-30T08:28:34.165Z,34.50
2024-04-30T08:31:01.982Z,34.50
2024-04-30T08:33:29.598Z,34.40
2024-04-30T08:35:56.767Z,34.20
2024-04-30T08:39:02.196Z,34.10
2024-04-30T08:41:30.721Z,34.20
2024-04-30T08:44:00.456Z,34.20
2024-04-30T08:46:28.896Z,34.10
2024-04-30T08:48:56.765Z,34.20
2024-04-30T08:51:24.807Z,34.10
2024-04-30T08:53:52.656Z,34.10
2024-04-30T08:56:19.830Z,34.20
2024-04-30T08:58:47.136Z,34.20
2024-04-30T09:01:14.589Z,34.10
2024-04-30T09:03:43.434Z,34.00
2024-04-30T09:06:11.585Z,34.10
2024-04-30T09:08:38.616Z,34.10
2024-04-30T09:11:05.818Z,34.10
2024-04-30T09:13:36.948Z,34.10
2024-04-30T09:16:05.415Z,34.10
2024-04-30T09:18:33.708Z,34.10
2024-04-30T09:21:12.261Z,34.10
2024-04-30T09:23:44.269Z,34.10
2024-04-30T09:26:12.473Z,34.20
2024-04-30T09:28:39.587Z,34.20
2024-04-30T09:31:11.261Z,34.10
2024-04-30T09:33:38.662Z,34.10
2024-04-30T09:36:09.486Z,34.10
2024-04-30T09:38:38.853Z,34.70
2024-04-30T09:41:10.680Z,34.20
2024-04-30T09:43:38.304Z,34.20
2024-04-30T09:46:05.679Z,34.30
2024-04-30T09:48:33.175Z,34.20
2024-04-30T09:51:03.937Z,33.90
2024-04-30T09:53:32.789Z,33.70
2024-04-30T09:56:02.193Z,33.60
2024-04-30T09:58:29.295Z,33.70
2024-04-30T10:00:59.755Z,33.80
2024-04-30T10:03:28.564Z,33.90
2024-04-30T10:05:56.818Z,33.80
2024-04-30T10:08:24.326Z,33.80
2024-04-30T10:10:51.513Z,34.00
2024-04-30T10:13:24.118Z,33.80
2024-04-30T10:15:51.306Z,33.90
2024-04-30T10:18:25.214Z,33.90
2024-04-30T10:20:52.316Z,33.80
2024-04-30T10:23:33.174Z,33.90
2024-04-30T10:26:04.599Z,33.80
2024-04-30T10:28:31.997Z,33.90
2024-04-30T10:31:09.842Z,33.90
2024-04-30T10:33:37.475Z,33.80
2024-04-30T10:36:05.239Z,33.90
2024-04-30T10:38:32.317Z,33.80
2024-04-30T10:41:02.839Z,33.80
2024-04-30T10:43:29.849Z,33.70
2024-04-30T10:46:08.416Z,33.70
2024-04-30T10:48:35.562Z,33.60
2024-04-30T10:51:03.062Z,33.60
2024-04-30T10:53:33.433Z,33.60
2024-04-30T10:56:01.189Z,33.60
2024-04-30T10:58:28.500Z,33.60
2024-04-30T11:00:55.602Z,33.60
2024-04-30T11:03:23.755Z,33.40
2024-04-30T11:06:04.089Z,32.90
2024-04-30T11:08:31.211Z,32.40
2024-04-30T11:11:08.957Z,32.30
2024-04-30T11:13:36.119Z,32.40
2024-04-30T11:16:08.382Z,32.60
2024-04-30T11:18:41.089Z,32.70
2024-04-30T11:21:08.162Z,32.70
2024-04-30T11:23:35.223Z,32.70
2024-04-30T11:26:02.330Z,32.70
2024-04-30T11:28:29.586Z,32.70
2024-04-30T11:30:57.059Z,32.70
2024-04-30T11:33:24.191Z,32.70
2024-04-30T11:35:51.218Z,32.70
2024-04-30T11:38:20.231Z,32.70
2024-04-30T11:40:47.403Z,32.70
2024-04-30T11:43:17.608Z,32.70
2024-04-30T11:45:44.641Z,32.80
2024-04-30T11:48:11.794Z,32.70
2024-04-30T11:50:38.896Z,32.60
2024-04-30T11:53:07.745Z,32.60
2024-04-30T11:55:34.947Z,33.10
2024-04-30T11:58:02.033Z,32.70
2024-04-30T12:00:29.287Z,32.80
2024-04-30T12:02:56.980Z,32.70
2024-04-30T12:05:24.019Z,32.70
2024-04-30T12:07:51.306Z,32.70
2024-04-30T12:10:18.840Z,32.70
2024-04-30T12:12:47.517Z,32.70
2024-04-30T12:15:14.997Z,32.60
2024-04-30T12:17:42.264Z,32.60
2024-04-30T12:20:09.592Z,32.50
2024-04-30T12:22:36.772Z,32.40
2024-04-30T12:25:03.941Z,32.40
2024-04-30T12:27:31.486Z,32.40
2024-04-30T12:29:58.526Z,32.30
2024-04-30T12:32:25.658Z,32.40
2024-04-30T12:34:52.815Z,32.40
2024-04-30T12:37:20.818Z,32.30
2024-04-30T12:39:47.886Z,32.20
2024-04-30T12:42:15.391Z,32.20
2024-04-30T12:44:42.502Z,32.20
2024-04-30T12:47:09.612Z,32.10
2024-04-30T12:49:37.516Z,32.10
2024-04-30T12:52:04.788Z,32.10
2024-04-30T12:54:33.813Z,32.20
2024-04-30T12:57:00.974Z,32.20
2024-04-30T12:59:28.086Z,32.20
2024-04-30T13:01:55.263Z,32.20
2024-04-30T13:04:22.583Z,32.10
2024-04-30T13:06:49.831Z,32.20
2024-04-30T13:09:16.915Z,32.20
2024-04-30T13:11:43.959Z,32.10
2024-04-30T13:14:11.114Z,32.00
2024-04-30T13:16:42.412Z,32.00
2024-04-30T13:19:09.630Z,32.00
2024-04-30T13:21:38.066Z,32.00
2024-04-30T13:24:05.266Z,32.00
2024-04-30T13:26:32.391Z,32.00
2024-04-30T13:28:59.491Z,32.10
2024-04-30T13:31:26.566Z,32.00
2024-04-30T13:33:53.648Z,32.00
2024-04-30T13:36:20.891Z,32.00
2024-04-30T13:38:48.250Z,32.00
2024-04-30T13:41:15.295Z,32.00
2024-04-30T13:43:42.615Z,32.00
2024-04-30T13:46:09.804Z,32.10
2024-04-30T13:48:37.042Z,32.20
2024-04-30T13:51:04.213Z,32.10
2024-04-30T13:53:31.370Z,32.20
2024-04-30T13:55:58.411Z,32.00
2024-04-30T13:58:25.463Z,32.00
2024-04-30T14:00:52.605Z,32.00
2024-04-30T14:03:19.636Z,31.90
2024-04-30T14:05:46.661Z,31.80
2024-04-30T14:08:13.792Z,31.70
2024-04-30T14:10:40.904Z,32.30
2024-04-30T14:13:08.106Z,31.80
2024-04-30T14:15:35.209Z,31.70
2024-04-30T14:18:03.446Z,31.20
2024-04-30T14:20:30.591Z,31.30
2024-04-30T14:22:57.612Z,31.70
2024-04-30T14:25:25.887Z,31.80
2024-04-30T14:27:53.052Z,31.90
2024-04-30T14:30:20.195Z,31.90
2024-04-30T14:32:47.362Z,31.80
2024-04-30T14:35:14.670Z,31.50
2024-04-30T14:37:41.876Z,31.70
2024-04-30T14:40:09.321Z,31.80
2024-04-30T14:42:36.419Z,32.00
2024-04-30T14:45:03.464Z,31.90
2024-04-30T14:47:30.501Z,32.10
2024-04-30T14:49:57.590Z,32.10
2024-04-30T14:52:24.590Z,32.10
2024-04-30T14:54:52.276Z,32.20
2024-04-30T14:57:19.331Z,32.30
2024-04-30T14:59:46.317Z,32.40
2024-04-30T15:02:13.415Z,32.40
2024-04-30T15:04:40.440Z,32.40
2024-04-30T15:07:07.523Z,32.50
2024-04-30T15:09:35.671Z,32.60
2024-04-30T15:12:03.224Z,32.80
2024-04-30T15:14:30.289Z,32.80
2024-04-30T15:16:57.413Z,33.20
2024-04-30T15:19:24.542Z,33.60
2024-04-30T15:21:51.606Z,34.20
2024-04-30T15:24:18.562Z,34.10
2024-04-30T15:26:45.595Z,34.60
2024-04-30T15:29:13.284Z,34.60
2024-04-30T15:31:40.420Z,34.20
2024-04-30T15:34:07.973Z,34.10
2024-04-30T15:36:35.009Z,34.40
2024-04-30T15:39:02.019Z,35.30
2024-04-30T15:41:28.999Z,35.40
2024-04-30T15:43:56.024Z,35.30
2024-04-30T15:46:24.135Z,35.00
2024-04-30T15:48:52.823Z,34.80
2024-04-30T15:51:19.917Z,34.70
2024-04-30T15:53:46.969Z,34.50
2024-04-30T15:56:18.493Z,34.40
2024-04-30T15:58:46.879Z,34.40
2024-04-30T16:01:14.222Z,34.40
2024-04-30T16:03:41.535Z,35.10
2024-04-30T16:06:09.117Z,36.40
2024-04-30T16:08:39.314Z,37.20
2024-04-30T16:11:10.413Z,38.30
2024-04-30T16:13:39.520Z,38.50
2024-04-30T16:16:12.995Z,37.20
2024-04-30T16:18:45.745Z,35.80
2024-04-30T16:21:13.214Z,35.10
2024-04-30T16:23:40.347Z,34.70
2024-04-30T16:26:07.606Z,34.50
2024-04-30T16:28:35.408Z,34.40
2024-04-30T16:31:04.326Z,34.20
2024-04-30T16:33:31.768Z,34.10
2024-04-30T16:35:59.053Z,33.90
2024-04-30T16:38:26.167Z,33.90
2024-04-30T16:40:53.237Z,33.80
2024-04-30T16:43:20.250Z,33.70
2024-04-30T16:45:47.424Z,33.70
2024-04-30T16:48:14.835Z,33.70
2024-04-30T16:50:42.094Z,33.60
2024-04-30T16:53:09.890Z,33.60
2024-04-30T16:55:36.838Z,33.60
2024-04-30T16:58:05.865Z,33.60
2024-04-30T17:00:33.227Z,33.60
2024-04-30T17:03:00.607Z,33.70
2024-04-30T17:05:28.010Z,33.70
2024-04-30T17:07:55.016Z,33.70
2024-04-30T17:10:22.047Z,33.80
2024-04-30T17:12:51.147Z,33.80
2024-04-30T17:15:19.208Z,33.80
2024-04-30T17:17:46.357Z,33.70
2024-04-30T17:20:13.425Z,33.80
2024-04-30T17:22:40.563Z,33.80
2024-04-30T17:25:07.883Z,33.80
2024-04-30T17:27:35.086Z,33.80
2024-04-30T17:30:02.223Z,33.90
2024-04-30T17:32:29.972Z,33.90
2024-04-30T17:34:57.083Z,34.00
2024-04-30T17:37:24.027Z,34.00
2024-04-30T17:39:51.077Z,34.10
2024-04-30T17:42:18.240Z,34.10
2024-04-30T17:44:45.295Z,34.20
2024-04-30T17:47:12.337Z,34.20
2024-04-30T17:49:39.341Z,34.30
2024-04-30T17:52:06.459Z,34.30
2024-04-30T17:54:33.648Z,34.40
2024-04-30T17:57:00.640Z,34.40
2024-04-30T17:59:28.320Z,34.40
2024-04-30T18:01:55.365Z,34.50
2024-04-30T18:04:22.605Z,34.60
2024-04-30T18:06:49.858Z,34.60
2024-04-30T18:09:16.906Z,34.60
2024-04-30T18:11:44.262Z,34.60
2024-04-30T18:14:11.238Z,34.70
2024-04-30T18:16:39.772Z,34.80
2024-04-30T18:19:10.090Z,34.80
2024-04-30T18:21:38.213Z,34.80
2024-04-30T18:24:07.618Z,34.90
2024-04-30T18:26:39.132Z,34.80
2024-04-30T18:29:06.136Z,34.90
2024-04-30T18:31:33.131Z,35.00
2024-04-30T18:34:00.251Z,35.00
2024-04-30T18:36:27.588Z,35.00
2024-04-30T18:38:55.208Z,35.00
2024-04-30T18:41:28.317Z,35.00
2024-04-30T18:43:58.371Z,35.10
2024-04-30T18:46:28.565Z,35.10
2024-04-30T18:48:55.943Z,35.10
2024-04-30T18:51:23.509Z,35.20
2024-04-30T18:53:50.640Z,35.20
2024-04-30T18:56:18.411Z,35.20
2024-04-30T18:58:46.088Z,35.20
2024-04-30T19:01:13.570Z,35.20
2024-04-30T19:03:41.078Z,35.30
2024-04-30T19:06:09.000Z,35.30
2024-04-30T19:08:36.419Z,35.30
2024-04-30T19:11:07.191Z,35.30
2024-04-30T19:13:34.674Z,35.90
2024-04-30T19:16:02.332Z,35.40
2024-04-30T19:18:29.778Z,35.40
2024-04-30T19:20:56.868Z,35.40
2024-04-30T19:23:28.696Z,35.40
2024-04-30T19:25:55.742Z,35.50
2024-04-30T19:28:23.534Z,35.50
2024-04-30T19:30:50.902Z,35.50
2024-04-30T19:33:18.412Z,35.60
2024-04-30T19:35:47.860Z,35.50
2024-04-30T19:38:15.918Z,35.50
2024-04-30T19:40:44.971Z,35.60
2024-04-30T19:43:14.451Z,35.60
2024-04-30T19:45:42.070Z,35.60
2024-04-30T19:48:12.012Z,35.70
2024-04-30T19:50:41.544Z,35.70
2024-04-30T19:53:08.543Z,35.60
2024-04-30T19:55:35.527Z,35.70
2024-04-30T19:58:02.549Z,35.80
2024-04-30T20:00:29.853Z,35.70
2024-04-30T20:02:58.236Z,35.70
2024-04-30T20:05:25.267Z,35.70
2024-04-30T20:07:52.984Z,35.80
2024-04-30T20:10:20.013Z,35.80
2024-04-30T20:12:47.055Z,35.80
2024-04-30T20:15:14.133Z,35.80
2024-04-30T20:17:41.161Z,35.90
2024-04-30T20:20:08.343Z,35.90
2024-04-30T20:22:35.314Z,35.90
2024-04-30T20:25:02.375Z,35.90
2024-04-30T20:27:29.502Z,35.90
2024-04-30T20:29:56.513Z,36.00
2024-04-30T20:32:23.822Z,36.00
2024-04-30T20:34:50.970Z,36.10
2024-04-30T20:37:17.951Z,36.00
2024-04-30T20:39:44.941Z,36.10
2024-04-30T20:42:11.968Z,36.10
2024-04-30T20:44:38.928Z,36.10
2024-04-30T20:47:05.999Z,36.10
2024-04-30T20:49:33.148Z,36.20
2024-04-30T20:52:00.218Z,36.10
2024-04-30T20:54:27.385Z,36.20
2024-04-30T20:56:54.426Z,36.20
2024-04-30T20:59:21.417Z,36.20
2024-04-30T21:01:48.611Z,36.30
2024-04-30T21:04:18.765Z,36.30
2024-04-30T21:06:45.896Z,36.40
2024-04-30T21:09:13.393Z,36.40
2024-04-30T21:11:40.384Z,36.40
2024-04-30T21:14:08.254Z,36.40
2024-04-30T21:16:41.303Z,36.50
2024-04-30T21:19:08.483Z,36.50
2024-04-30T21:21:39.279Z,36.50
2024-04-30T21:24:06.355Z,36.50
2024-04-30T21:26:33.383Z,36.50
2024-04-30T21:29:00.401Z,36.60
2024-04-30T21:31:27.432Z,36.60
2024-04-30T21:33:54.495Z,36.60
2024-04-30T21:36:22.439Z,36.70
2024-04-30T21:38:49.999Z,36.70
2024-04-30T21:41:17.017Z,36.70
2024-04-30T21:43:44.060Z,36.70
2024-04-30T21:46:11.099Z,36.70
2024-04-30T21:48:38.879Z,36.70
2024-04-30T21:51:06.260Z,36.70
2024-04-30T21:53:33.283Z,36.70
2024-04-30T21:56:00.279Z,37.20
2024-04-30T21:58:27.329Z,36.70
2024-04-30T22:00:54.347Z,36.70
2024-04-30T22:03:22.046Z,36.80
2024-04-30T22:05:49.158Z,36.80
2024-04-30T22:08:16.144Z,36.80
2024-04-30T22:10:43.156Z,36.90
2024-04-30T22:13:10.173Z,36.90
2024-04-30T22:15:37.317Z,36.90
2024-04-30T22:18:04.662Z,36.90
2024-04-30T22:20:31.835Z,36.90
2024-04-30T22:22:58.815Z,37.00
2024-04-30T22:25:25.845Z,37.00
2024-04-30T22:27:52.881Z,37.00
2024-04-30T22:30:20.910Z,37.10
2024-04-30T22:32:49.036Z,37.00
2024-04-30T22:35:16.212Z,37.10
2024-04-30T22:37:43.203Z,37.00
2024-04-30T22:40:10.294Z,37.10
2024-04-30T22:42:37.488Z,37.10
2024-04-30T22:45:04.635Z,37.20
2024-04-30T22:47:31.741Z,37.20
2024-04-30T22:49:58.786Z,37.10
2024-04-30T22:52:25.786Z,37.10
2024-04-30T22:54:52.949Z,37.10
2024-04-30T22:57:20.094Z,37.10
2024-04-30T22:59:47.089Z,37.10
2024-04-30T23:02:14.061Z,37.10
2024-04-30T23:04:41.155Z,37.10
2024-04-30T23:07:08.171Z,37.10
2024-04-30T23:09:35.200Z,37.10
2024-04-30T23:12:02.306Z,37.00
2024-04-30T23:14:29.431Z,37.10
2024-04-30T23:16:56.480Z,37.10
2024-04-30T23:19:23.589Z,37.10
2024-04-30T23:21:50.751Z,37.10
2024-04-30T23:24:17.780Z,37.10
2024-04-30T23:26:44.782Z,37.20
2024-04-30T23:29:11.823Z,37.20
2024-04-30T23:31:38.827Z,37.20
2024-04-30T23:34:05.857Z,37.20
2024-04-30T23:36:32.983Z,37.30
2024-04-30T23:38:59.998Z,37.20
2024-04-30T23:41:27.022Z,37.20
2024-04-30T23:43:54.123Z,37.20
2024-04-30T23:46:21.278Z,37.20
2024-04-30T23:48:48.370Z,37.30
2024-04-30T23:51:15.402Z,37.30
2024-04-30T23:53:43.000Z,37.30
2024-04-30T23:56:10.446Z,37.30
2024-04-30T23:58:37.412Z,37.30
